»·PEaware :: ASA1064 KPDX-KSFO

ASA1064 :: KPDX-KSFO

FLIGHT INFORMATION

Flight Status: Arrived
Operator:
Alaska Airlines
More flights by this operator :: More flights under this callsign
Pilot: Jules P. (45166)
Aircraft: BOEING 737-900
(B739)
More flights by this aircraft type
Origin: KPDX Portland Intl
United States
Destination: KSFO San Francisco Intl
United States
More flights between these airports :: More routes between these airports
Route: MINNE5 FAMUK Q3 FOWND MLBEC BDEGA3
File this flight plan on PilotEdge
Remarks: RMK / SIMBRIEF
Altitude:
(Current/Filed)
35,000ft
Speed:
(Current/Filed)
451kts
Departed: 10-Sep-23 10:54 AM
Arrived: 10-Sep-23 12:17 PM
Distance/Time
Traveled:
478nm/1:23
Distance/Time
To Go:
Arrived

Flight Plot

Page will automatically refresh every two minutes.

Flight plan parsing failed; only flown route is shown


Map Options




Map Legend


Flown Route
Filed Route
Departure Airport
Arrival Airport
Navaid (VOR, NDB)
Fix

Horizontal Profiles

Position Reports

Time Latitude Longitude Heading Altitude Ground
Speed
10-Sep-23 10:02 45.589001 -122.597955 14 38ft 0kts
10-Sep-23 10:03 45.589001 -122.597955 14 38ft 0kts
10-Sep-23 10:04 45.589001 -122.597955 14 38ft 0kts
10-Sep-23 10:05 45.589001 -122.597955 14 38ft 0kts
10-Sep-23 10:06 45.589001 -122.597955 14 38ft 0kts
10-Sep-23 10:07 45.589001 -122.597955 14 38ft 0kts
10-Sep-23 10:08 45.589001 -122.597955 14 38ft 0kts
10-Sep-23 10:09 45.589001 -122.597955 14 38ft 0kts
10-Sep-23 10:10 45.589001 -122.597955 14 38ft 0kts
10-Sep-23 10:11 45.589001 -122.597955 14 38ft 0kts
10-Sep-23 10:12 45.589001 -122.597955 14 38ft 0kts
10-Sep-23 10:13 45.589001 -122.597955 14 38ft 0kts
10-Sep-23 10:14 45.589001 -122.597955 14 38ft 0kts
10-Sep-23 10:15 45.589001 -122.597955 14 38ft 0kts
10-Sep-23 10:16 45.589001 -122.597955 14 38ft 0kts
10-Sep-23 10:17 45.589001 -122.597955 14 38ft 0kts
10-Sep-23 10:18 45.589001 -122.597955 14 38ft 0kts
10-Sep-23 10:19 45.589001 -122.597955 14 38ft 0kts
10-Sep-23 10:20 45.589001 -122.597955 14 38ft 0kts
10-Sep-23 10:21 45.589001 -122.597955 14 38ft 0kts
10-Sep-23 10:22 45.589001 -122.597955 14 38ft 0kts
10-Sep-23 10:23 45.589001 -122.597955 14 38ft 0kts
10-Sep-23 10:24 45.589001 -122.597955 14 38ft 0kts
10-Sep-23 10:24 45.589001 -122.597955 14 38ft 0kts
10-Sep-23 10:26 45.589001 -122.597955 14 38ft 0kts
10-Sep-23 10:27 45.589001 -122.597955 14 38ft 0kts
10-Sep-23 10:28 45.589001 -122.597955 14 38ft 0kts
10-Sep-23 10:28 45.589001 -122.597955 14 38ft 0kts
10-Sep-23 10:29 45.589001 -122.597955 14 38ft 0kts
10-Sep-23 10:30 45.589001 -122.597955 14 38ft 0kts
10-Sep-23 10:31 45.589001 -122.597955 14 38ft 0kts
10-Sep-23 10:33 45.589001 -122.597955 14 38ft 0kts
10-Sep-23 10:33 45.589001 -122.597955 14 38ft 0kts
10-Sep-23 10:34 45.589001 -122.597955 14 38ft 0kts
10-Sep-23 10:35 45.589001 -122.597955 14 38ft 0kts
10-Sep-23 10:36 45.589001 -122.597955 14 38ft 0kts
10-Sep-23 10:37 45.589001 -122.597955 14 38ft 0kts
10-Sep-23 10:38 45.589001 -122.597955 14 38ft 0kts
10-Sep-23 10:39 45.589001 -122.597955 14 38ft 0kts
10-Sep-23 10:40 45.588568 -122.598059 1 38ft 2kts
10-Sep-23 10:41 45.588018 -122.597800 298 38ft 0kts
10-Sep-23 10:42 45.588018 -122.597800 298 38ft 0kts
10-Sep-23 10:43 45.588018 -122.597800 298 38ft 0kts
10-Sep-23 10:44 45.588018 -122.597800 298 38ft 0kts
10-Sep-23 10:45 45.588018 -122.597800 298 38ft 0kts
10-Sep-23 10:46 45.588018 -122.597800 298 38ft 0kts
10-Sep-23 10:47 45.588118 -122.600072 286 38ft 8kts
10-Sep-23 10:48 45.590699 -122.605655 314 38ft 25kts
10-Sep-23 10:49 45.594544 -122.615020 297 38ft 22kts
10-Sep-23 10:50 45.596224 -122.620294 232 38ft 14kts
10-Sep-23 10:51 45.596010 -122.620563 211 38ft 0kts
10-Sep-23 10:52 45.594807 -122.620588 115 38ft 12kts
10-Sep-23 10:53 45.581267 -122.585996 119 447ft 195kts
10-Sep-23 10:54 45.569644 -122.518138 93 4750ft 172kts
10-Sep-23 10:55 45.562623 -122.440014 106 7096ft 253kts
10-Sep-23 10:56 45.538072 -122.335656 131 10479ft 298kts
10-Sep-23 10:57 45.454726 -122.318031 207 13214ft 345kts
10-Sep-23 10:58 45.397168 -122.429293 241 16703ft 362kts
10-Sep-23 10:59 45.353148 -122.561326 245 19743ft 378kts
10-Sep-23 11:00 45.309181 -122.700167 244 22300ft 393kts
10-Sep-23 11:01 45.262702 -122.843614 245 24460ft 406kts
10-Sep-23 11:02 45.194978 -122.968210 205 26365ft 420kts
10-Sep-23 11:03 45.078138 -123.002792 192 27927ft 436kts
10-Sep-23 11:04 44.956978 -123.030542 192 29269ft 445kts
10-Sep-23 11:05 44.834088 -123.059080 192 30577ft 449kts
10-Sep-23 11:06 44.711058 -123.087637 192 32058ft 445kts
10-Sep-23 11:07 44.589364 -123.115551 192 33312ft 443kts
10-Sep-23 11:08 44.466837 -123.134938 183 34451ft 446kts
10-Sep-23 11:09 44.342311 -123.130485 182 35023ft 450kts
10-Sep-23 11:10 44.218202 -123.126000 182 35025ft 446kts
10-Sep-23 11:11 44.094027 -123.121571 182 35027ft 446kts
10-Sep-23 11:12 43.969805 -123.117178 182 35015ft 447kts
10-Sep-23 11:13 43.845384 -123.112799 182 35011ft 447kts
10-Sep-23 11:14 43.721510 -123.108468 182 35012ft 447kts
10-Sep-23 11:15 43.596931 -123.104121 182 35014ft 447kts
10-Sep-23 11:16 43.472967 -123.099822 182 35016ft 447kts
10-Sep-23 11:17 43.348698 -123.095522 182 35017ft 447kts
10-Sep-23 11:18 43.224285 -123.091238 182 35019ft 446kts
10-Sep-23 11:19 43.100108 -123.086983 182 35027ft 446kts
10-Sep-23 11:20 42.976080 -123.082744 182 35035ft 446kts
10-Sep-23 11:21 42.852062 -123.078526 182 35048ft 446kts
10-Sep-23 11:22 42.728287 -123.074317 182 35058ft 445kts
10-Sep-23 11:23 42.604213 -123.070137 182 35055ft 445kts
10-Sep-23 11:24 42.480292 -123.065977 182 35035ft 445kts
10-Sep-23 11:25 42.356142 -123.061919 182 35003ft 445kts
10-Sep-23 11:26 42.232588 -123.057887 182 35003ft 445kts
10-Sep-23 11:27 42.108055 -123.053826 182 35179ft 449kts
10-Sep-23 11:28 41.984242 -123.049799 182 35196ft 445kts
10-Sep-23 11:29 41.860821 -123.045804 182 35204ft 443kts
10-Sep-23 11:30 41.737141 -123.041835 182 35210ft 443kts
10-Sep-23 11:31 41.614226 -123.037864 182 35211ft 443kts
10-Sep-23 11:32 41.491000 -123.033928 182 35208ft 443kts
10-Sep-23 11:33 41.367630 -123.030008 182 35204ft 443kts
10-Sep-23 11:34 41.244396 -123.026222 182 35208ft 442kts
10-Sep-23 11:35 41.121645 -123.022515 182 35202ft 442kts
10-Sep-23 11:36 40.998472 -123.018807 182 35199ft 442kts
10-Sep-23 11:37 40.875934 -123.015098 182 35180ft 441kts
10-Sep-23 11:38 40.753172 -123.011413 182 35173ft 441kts
10-Sep-23 11:39 40.630373 -123.007743 182 35164ft 440kts
10-Sep-23 11:40 40.507864 -123.004097 182 35151ft 440kts
10-Sep-23 11:41 40.385440 -123.000480 182 35150ft 440kts
10-Sep-23 11:42 40.262825 -122.996845 182 35123ft 440kts
10-Sep-23 11:43 40.140639 -122.993246 182 35108ft 440kts
10-Sep-23 11:44 40.018477 -122.989666 182 35112ft 440kts
10-Sep-23 11:45 39.895900 -122.986077 183 35111ft 440kts
10-Sep-23 11:46 39.773958 -122.982526 183 35112ft 439kts
10-Sep-23 11:47 39.651648 -122.978977 183 35115ft 439kts
10-Sep-23 11:48 39.529265 -122.975436 183 35114ft 440kts
10-Sep-23 11:49 39.406997 -122.971906 183 35113ft 439kts
10-Sep-23 11:50 39.284651 -122.968388 183 35112ft 439kts
10-Sep-23 11:51 39.162706 -122.964903 183 35111ft 439kts
10-Sep-23 11:52 39.040274 -122.961970 184 35110ft 439kts
10-Sep-23 11:53 38.925602 -122.959914 184 35111ft 439kts
10-Sep-23 11:54 38.803452 -122.938091 172 33944ft 449kts
10-Sep-23 11:55 38.681912 -122.901815 171 30671ft 444kts
10-Sep-23 11:56 38.563825 -122.867057 170 28078ft 427kts
10-Sep-23 11:57 38.450342 -122.833566 169 26090ft 418kts
10-Sep-23 11:58 38.339164 -122.800999 168 23868ft 404kts
10-Sep-23 11:59 38.231351 -122.769488 168 21706ft 389kts
10-Sep-23 12:00 38.127566 -122.739200 169 19627ft 377kts
10-Sep-23 12:01 38.027073 -122.710103 169 17610ft 364kts
10-Sep-23 12:02 37.929593 -122.681932 169 15565ft 354kts
10-Sep-23 12:03 37.846933 -122.618307 141 13620ft 349kts
10-Sep-23 12:04 37.774653 -122.540934 142 11921ft 330kts
10-Sep-23 12:05 37.707130 -122.469329 141 11021ft 300kts
10-Sep-23 12:06 37.643501 -122.401763 141 10978ft 296kts
10-Sep-23 12:07 37.578193 -122.343496 153 8017ft 283kts
10-Sep-23 12:08 37.511113 -122.296335 135 5354ft 270kts
10-Sep-23 12:09 37.471193 -122.220202 110 4979ft 239kts
10-Sep-23 12:10 37.501448 -122.159115 33 3189ft 220kts
10-Sep-23 12:11 37.541771 -122.183006 293 2968ft 193kts
10-Sep-23 12:12 37.562739 -122.241407 297 2104ft 169kts
10-Sep-23 12:13 37.582479 -122.288662 297 1244ft 140kts
10-Sep-23 12:14 37.600025 -122.330450 298 538ft 129kts
10-Sep-23 12:15 37.616160 -122.368809 297 21ft 82kts
10-Sep-23 12:16 37.618909 -122.377952 269 21ft 9kts
10-Sep-23 12:17 37.619411 -122.381426 297 21ft 13kts
10-Sep-23 12:18 37.619970 -122.383196 292 21ft 0kts
10-Sep-23 12:19 37.620641 -122.382539 114 21ft 17kts
10-Sep-23 12:20 37.619010 -122.380458 283 21ft 0kts
10-Sep-23 12:21 37.619393 -122.381613 298 21ft 0kts
10-Sep-23 12:22 37.618649 -122.381647 167 21ft 1kts
10-Sep-23 12:23 37.618616 -122.381638 167 21ft 0kts
10-Sep-23 12:24 37.618616 -122.381638 167 21ft 0kts
10-Sep-23 12:25 37.618616 -122.381638 167 21ft 0kts
10-Sep-23 12:26 37.618616 -122.381638 167 21ft 0kts
10-Sep-23 12:27 37.618616 -122.381638 167 21ft 0kts
10-Sep-23 12:28 37.618616 -122.381638 167 21ft 0kts
10-Sep-23 12:29 37.618616 -122.381638 167 21ft 0kts
10-Sep-23 12:30 37.618616 -122.381638 167 21ft 0kts

Navigation Log

Ident Type
Flight plan parsing failed, navigation log unavailable